createdAt,value
2019-04-22T00:00:25.753Z,101819.03
2019-04-22T00:01:29.462Z,101819.87
2019-04-22T00:02:29.920Z,101824.25
2019-04-22T00:03:39.145Z,101822.55
2019-04-22T00:04:47.163Z,101828.28
2019-04-22T00:06:00.398Z,101822.44
2019-04-22T00:07:03.321Z,101825.59
2019-04-22T00:08:10.575Z,101824.25
2019-04-22T00:09:19.559Z,101825.98
2019-04-22T00:10:21.101Z,101821.45
2019-04-22T00:11:27.264Z,101832.07
2019-04-22T00:12:27.998Z,101832.19
2019-04-22T00:13:32.225Z,101830.73
2019-04-22T00:14:30.776Z,101831.56
2019-04-22T00:15:33.902Z,101832.55
2019-04-22T00:16:47.248Z,101836.10
2019-04-22T00:17:55.289Z,101834.76
2019-04-22T00:19:01.836Z,101829.03
2019-04-22T00:20:02.991Z,101830.37
2019-04-22T00:20:58.390Z,101833.06
2019-04-22T00:22:03.346Z,101832.70
2019-04-22T00:23:04.051Z,101828.67
2019-04-22T00:24:04.647Z,101832.31
2019-04-22T00:25:14.517Z,101831.36
2019-04-22T00:26:20.342Z,101827.92
2019-04-22T00:28:21.608Z,101834.64
2019-04-22T00:29:42.373Z,101831.61
2019-04-22T00:30:42.009Z,101829.78
2019-04-22T00:31:40.452Z,101827.09
2019-04-22T00:32:44.963Z,101826.11
2019-04-22T00:33:50.159Z,101825.75
2019-04-22T00:34:53.632Z,101824.69
2019-04-22T00:36:04.767Z,101824.69
2019-04-22T00:37:02.959Z,101819.44
2019-04-22T00:38:12.848Z,101822.98
2019-04-22T00:39:16.389Z,101828.48
2019-04-22T00:40:14.402Z,101828.12
2019-04-22T00:41:20.374Z,101834.13
2019-04-22T00:42:24.659Z,101835.98
2019-04-22T00:43:29.275Z,101837.33
2019-04-22T00:44:35.477Z,101833.77
2019-04-22T00:45:36.207Z,101836.09
2019-04-22T00:46:44.456Z,101840.48
2019-04-22T00:47:37.930Z,101842.34
2019-04-22T00:48:48.499Z,101832.94
2019-04-22T00:50:12.951Z,101831.08
2019-04-22T00:51:01.975Z,101833.77
2019-04-22T00:52:06.306Z,101833.30
2019-04-22T00:53:03.968Z,101833.50
2019-04-22T00:54:12.293Z,101830.45
2019-04-22T00:55:16.354Z,101827.29
2019-04-22T00:56:10.645Z,101831.32
2019-04-22T00:57:16.880Z,101837.53
2019-04-22T00:58:16.565Z,101838.39
2019-04-22T00:59:23.534Z,101836.69
2019-04-22T01:00:28.895Z,101841.91
2019-04-22T01:01:45.649Z,101836.54
2019-04-22T01:02:34.706Z,101829.34
2019-04-22T01:03:43.085Z,101820.94
2019-04-22T01:04:39.287Z,101833.37
2019-04-22T01:05:40.647Z,101831.16
2019-04-22T01:06:45.888Z,101829.82
2019-04-22T01:07:49.949Z,101832.51
2019-04-22T01:09:58.921Z,101835.55
2019-04-22T01:11:06.323Z,101836.89
2019-04-22T01:12:12.191Z,101833.37
2019-04-22T01:13:04.717Z,101837.25
2019-04-22T01:14:09.168Z,101834.56
2019-04-22T01:15:17.464Z,101828.00
2019-04-22T01:16:17.501Z,101831.41
2019-04-22T01:17:19.370Z,101831.76
2019-04-22T01:18:24.945Z,101826.03
2019-04-22T01:19:34.787Z,101829.19
2019-04-22T01:21:02.198Z,101827.73
2019-04-22T01:21:42.161Z,101819.79
2019-04-22T01:22:40.601Z,101822.36
2019-04-22T01:23:47.766Z,101816.75
2019-04-22T01:24:50.294Z,101821.77
2019-04-22T01:25:50.112Z,101818.72
2019-04-22T01:26:53.690Z,101824.61
2019-04-22T01:27:54.793Z,101825.95
2019-04-22T01:28:59.298Z,101833.14
2019-04-22T01:30:00.872Z,101836.81
2019-04-22T01:31:00.992Z,101834.64
2019-04-22T01:31:56.450Z,101840.01
2019-04-22T01:33:09.155Z,101844.03
2019-04-22T01:34:17.660Z,101841.00
2019-04-22T01:35:20.912Z,101845.50
2019-04-22T01:36:32.392Z,101834.05
2019-04-22T01:37:28.819Z,101838.08
2019-04-22T01:38:36.645Z,101840.13
2019-04-22T01:39:43.705Z,101841.12
2019-04-22T01:40:53.913Z,101851.86
2019-04-22T01:41:59.903Z,101842.10
2019-04-22T01:44:05.674Z,101845.77
2019-04-22T01:44:58.212Z,101840.91
2019-04-22T01:46:08.240Z,101846.28
2019-04-22T01:47:10.431Z,101848.61
2019-04-22T01:48:10.405Z,101844.08
2019-04-22T01:49:17.338Z,101848.45
2019-04-22T01:50:21.362Z,101844.08
2019-04-22T01:51:35.457Z,101847.12
2019-04-22T01:52:25.483Z,101848.45
2019-04-22T01:53:36.436Z,101845.77
2019-04-22T01:54:41.573Z,101842.97
2019-04-22T01:55:38.832Z,101842.46
2019-04-22T01:56:40.978Z,101842.81
2019-04-22T01:57:41.903Z,101843.69
2019-04-22T01:58:42.180Z,101844.39
2019-04-22T01:59:40.450Z,101847.08
2019-04-22T02:01:11.423Z,101842.54
2019-04-22T02:01:55.195Z,101842.54
2019-04-22T02:03:04.226Z,101842.54
2019-04-22T02:04:08.903Z,101841.20
2019-04-22T02:05:15.663Z,101842.54
2019-04-22T02:06:17.309Z,101844.75
2019-04-22T02:07:16.940Z,101845.23
2019-04-22T02:08:36.578Z,101841.55
2019-04-22T02:10:44.131Z,101843.61
2019-04-22T02:11:46.728Z,101840.92
2019-04-22T02:13:49.594Z,101852.30
2019-04-22T02:15:53.938Z,101849.26
2019-04-22T02:16:56.951Z,101850.48
2019-04-22T02:18:03.216Z,101851.47
2019-04-22T02:19:11.739Z,101844.39
2019-04-22T02:20:13.448Z,101849.05
2019-04-22T02:21:07.327Z,101848.19
2019-04-22T02:22:17.602Z,101851.38
2019-04-22T02:24:28.299Z,101849.69
2019-04-22T02:25:32.587Z,101854.34
2019-04-22T02:26:31.586Z,101855.17
2019-04-22T02:27:54.575Z,101854.82
2019-04-22T02:28:40.023Z,101853.13
2019-04-22T02:29:44.252Z,101852.64
2019-04-22T02:31:04.975Z,101854.97
2019-04-22T02:31:48.946Z,101855.09
2019-04-22T02:33:25.483Z,101854.26
2019-04-22T02:35:03.566Z,101862.79
2019-04-22T02:36:19.125Z,101860.11
2019-04-22T02:38:19.642Z,101859.23
2019-04-22T02:39:12.126Z,101860.11
2019-04-22T02:40:17.299Z,101856.55
2019-04-22T02:42:19.546Z,101854.73
2019-04-22T02:44:31.326Z,101855.09
2019-04-22T02:45:50.395Z,101852.05
2019-04-22T02:49:45.077Z,101858.64
2019-04-22T02:50:54.899Z,101870.73
2019-04-22T02:51:52.466Z,101868.16
2019-04-22T02:53:02.026Z,101868.88
2019-04-22T02:55:10.670Z,101870.58
2019-04-22T02:56:25.132Z,101868.25
2019-04-22T02:57:22.695Z,101867.27
2019-04-22T02:58:35.338Z,101860.55
2019-04-22T02:59:28.821Z,101860.91
2019-04-22T03:03:56.564Z,101871.02
2019-04-22T03:04:28.357Z,101864.30
2019-04-22T03:05:56.645Z,101864.30
2019-04-22T03:07:54.198Z,101865.64
2019-04-22T03:08:59.409Z,101862.96
2019-04-22T03:09:55.395Z,101860.27
2019-04-22T03:11:11.486Z,101856.40
2019-04-22T03:12:09.385Z,101861.27
2019-04-22T03:13:11.469Z,101860.43
2019-04-22T03:14:08.811Z,101863.59
2019-04-22T03:15:08.805Z,101855.53
2019-04-22T03:16:28.759Z,101856.52
2019-04-22T03:17:25.202Z,101849.80
2019-04-22T03:18:33.513Z,101843.95
2019-04-22T03:20:31.390Z,101851.15
2019-04-22T03:21:34.353Z,101842.73
2019-04-22T03:25:24.498Z,101840.67
2019-04-22T03:26:00.338Z,101840.83
2019-04-22T03:26:50.403Z,101850.23
2019-04-22T03:27:48.145Z,101857.06
2019-04-22T03:31:54.935Z,101860.86
2019-04-22T03:32:59.399Z,101863.42
2019-04-22T03:33:40.039Z,101863.89
2019-04-22T03:35:44.771Z,101855.64
2019-04-22T03:39:06.172Z,101857.69
2019-04-22T03:40:16.274Z,101860.37
2019-04-22T03:42:07.149Z,101862.08
2019-04-22T03:44:18.924Z,101867.30
2019-04-22T03:45:25.000Z,101869.98
2019-04-22T03:46:14.659Z,101869.51
2019-04-22T03:47:38.716Z,101876.94
2019-04-22T03:48:17.697Z,101868.52
2019-04-22T03:50:28.076Z,101870.73
2019-04-22T03:52:39.042Z,101868.88
2019-04-22T03:53:38.716Z,101879.98
2019-04-22T03:54:49.616Z,101874.61
2019-04-22T03:56:04.379Z,101879.98
2019-04-22T03:59:11.532Z,101871.30
2019-04-22T04:00:08.334Z,101872.64
2019-04-22T04:01:06.056Z,101884.09
2019-04-22T04:02:24.058Z,101873.34
2019-04-22T04:04:25.691Z,101880.94
2019-04-22T04:05:33.526Z,101888.48
2019-04-22T04:06:36.231Z,101891.16
2019-04-22T04:08:57.289Z,101894.36
2019-04-22T04:11:57.984Z,101906.20
2019-04-22T04:12:53.992Z,101915.13
2019-04-22T04:13:58.465Z,101910.75
2019-04-22T04:14:53.962Z,101916.12
2019-04-22T04:15:46.198Z,101914.89
2019-04-22T04:17:56.995Z,101910.51
2019-04-22T04:19:13.701Z,101914.89
2019-04-22T04:20:23.732Z,101924.92
2019-04-22T04:22:20.982Z,101919.20
2019-04-22T04:25:40.940Z,101924.20
2019-04-22T04:29:47.731Z,101922.98
2019-04-22T04:30:40.066Z,101926.89
2019-04-22T04:33:54.602Z,101919.82
2019-04-22T04:38:00.720Z,101911.61
2019-04-22T04:39:05.735Z,101911.49
2019-04-22T04:40:20.739Z,101904.78
2019-04-22T04:43:32.820Z,101900.48
2019-04-22T04:44:35.088Z,101902.69
2019-04-22T04:48:56.173Z,101894.98
2019-04-22T04:49:54.479Z,101899.49
2019-04-22T04:50:53.332Z,101896.33
2019-04-22T04:51:51.274Z,101898.03
2019-04-22T04:53:09.811Z,101896.33
2019-04-22T04:54:05.824Z,101900.21
2019-04-22T04:55:14.388Z,101901.20
2019-04-22T04:56:01.896Z,101898.03
2019-04-22T04:57:07.250Z,101900.56
2019-04-22T04:58:25.034Z,101904.23
2019-04-22T04:59:30.359Z,101907.28
2019-04-22T05:00:39.250Z,101904.59
2019-04-22T05:01:23.126Z,101904.59
2019-04-22T05:02:35.228Z,101902.42
2019-04-22T05:03:32.909Z,101907.28
2019-04-22T05:04:41.878Z,101903.77
2019-04-22T05:05:31.481Z,101905.46
2019-04-22T05:09:00.923Z,101897.84
2019-04-22T05:09:44.789Z,101903.42
2019-04-22T05:12:57.296Z,101899.95
2019-04-22T05:15:09.049Z,101909.17
2019-04-22T05:17:13.838Z,101925.58
2019-04-22T05:18:13.964Z,101926.29
2019-04-22T05:19:15.486Z,101928.23
2019-04-22T05:20:24.272Z,101935.53
2019-04-22T05:21:16.343Z,101934.63
2019-04-22T05:22:23.206Z,101936.69
2019-04-22T05:23:32.506Z,101938.95
2019-04-22T05:24:46.023Z,101940.80
2019-04-22T05:25:27.035Z,101944.19
2019-04-22T05:26:46.201Z,101943.28
2019-04-22T05:27:39.833Z,101936.28
2019-04-22T05:28:44.990Z,101929.64
2019-04-22T05:30:00.897Z,101939.84
2019-04-22T05:30:45.730Z,101934.69
2019-04-22T05:31:57.065Z,101936.95
2019-04-22T05:32:59.629Z,101942.75
2019-04-22T05:34:04.329Z,101938.44
2019-04-22T05:35:00.590Z,101935.83
2019-04-22T05:36:07.211Z,101937.27
2019-04-22T05:37:08.731Z,101933.79
2019-04-22T05:41:23.855Z,101940.44
2019-04-22T05:42:39.644Z,101947.75
2019-04-22T05:43:31.007Z,101946.00
2019-04-22T05:44:38.857Z,101950.58
2019-04-22T05:45:31.453Z,101942.73
2019-04-22T05:46:34.805Z,101947.00
2019-04-22T05:47:44.400Z,101941.68
2019-04-22T05:48:46.671Z,101944.59
2019-04-22T05:49:48.286Z,101945.66
2019-04-22T05:50:59.310Z,101941.84
2019-04-22T05:52:01.188Z,101938.52
2019-04-22T05:53:03.260Z,101945.95
2019-04-22T05:54:05.823Z,101948.00
2019-04-22T05:55:08.481Z,101950.53
2019-04-22T05:56:15.437Z,101957.48
2019-04-22T05:57:15.147Z,101959.19
2019-04-22T05:58:15.182Z,101960.25
2019-04-22T05:59:17.666Z,101964.28
2019-04-22T06:00:36.915Z,101962.42
2019-04-22T06:02:43.085Z,101966.34
2019-04-22T06:03:35.296Z,101965.34
2019-04-22T06:04:37.201Z,101968.91
2019-04-22T06:05:44.841Z,101964.52
2019-04-22T06:06:39.945Z,101970.73
2019-04-22T06:07:48.185Z,101963.00
2019-04-22T06:08:50.974Z,101966.20
2019-04-22T06:09:59.647Z,101967.05
2019-04-22T06:11:00.463Z,101970.60
2019-04-22T06:11:59.222Z,101965.70
2019-04-22T06:13:06.495Z,101963.35
2019-04-22T06:14:12.264Z,101961.53
2019-04-22T06:15:22.335Z,101963.52
2019-04-22T06:16:26.413Z,101964.86
2019-04-22T06:17:31.771Z,101963.30
2019-04-22T06:19:31.525Z,101978.11
2019-04-22T06:20:45.514Z,101973.55
2019-04-22T06:21:44.129Z,101983.84
2019-04-22T06:22:58.458Z,101981.92
2019-04-22T06:23:58.821Z,101984.13
2019-04-22T06:24:55.261Z,101982.08
2019-04-22T06:28:03.473Z,101986.12
2019-04-22T06:29:10.386Z,101983.78
2019-04-22T06:30:12.579Z,101988.65
2019-04-22T06:31:20.658Z,101986.83
2019-04-22T06:33:23.222Z,101991.57
2019-04-22T06:36:37.784Z,101996.31
2019-04-22T06:37:53.230Z,101993.14
2019-04-22T06:38:39.290Z,101991.28
2019-04-22T06:39:39.581Z,101995.67
2019-04-22T06:40:47.028Z,101987.11
2019-04-22T06:42:57.898Z,101991.98
2019-04-22T06:43:59.826Z,101987.95
2019-04-22T06:45:04.137Z,101992.70
2019-04-22T06:46:06.314Z,101990.35
2019-04-22T06:47:12.886Z,101985.31
2019-04-22T06:48:14.160Z,101980.44
2019-04-22T06:49:19.420Z,101981.98
2019-04-22T06:50:18.533Z,101979.64
2019-04-22T06:51:21.352Z,101978.45
2019-04-22T06:53:25.037Z,101976.95
2019-04-22T06:54:35.954Z,101975.60
2019-04-22T06:55:40.160Z,101972.91
2019-04-22T06:56:35.648Z,101974.77
2019-04-22T06:57:37.009Z,101971.91
2019-04-22T06:58:51.477Z,101977.59
2019-04-22T07:00:08.283Z,101975.25
2019-04-22T07:00:45.986Z,101972.20
2019-04-22T07:01:55.059Z,101977.59
2019-04-22T07:03:27.218Z,101979.09
2019-04-22T07:03:58.009Z,101979.93
2019-04-22T07:05:08.232Z,101981.63
2019-04-22T07:06:11.469Z,101979.80
2019-04-22T07:07:12.824Z,101983.48
2019-04-22T07:08:59.544Z,101982.97
2019-04-22T07:09:28.530Z,101979.93
2019-04-22T07:10:29.896Z,101985.83
2019-04-22T07:11:26.539Z,101984.97
2019-04-22T07:12:31.926Z,101986.66
2019-04-22T07:14:35.277Z,101986.95
2019-04-22T07:16:44.682Z,101981.56
2019-04-22T07:17:52.254Z,101977.53
2019-04-22T07:18:48.718Z,101981.73
2019-04-22T07:19:47.541Z,101986.76
2019-04-22T07:20:57.867Z,101987.59
2019-04-22T07:21:57.498Z,101981.50
2019-04-22T07:23:04.487Z,101985.89
2019-04-22T07:24:20.179Z,101984.70
2019-04-22T07:25:06.685Z,101987.41
2019-04-22T07:26:08.704Z,101984.84
2019-04-22T07:27:16.998Z,101991.22
2019-04-22T07:28:17.831Z,101985.83
2019-04-22T07:29:21.798Z,101987.30
2019-04-22T07:30:26.906Z,101984.77
2019-04-22T07:31:28.566Z,101985.60
2019-04-22T07:32:53.809Z,101987.11
2019-04-22T07:33:37.835Z,101988.45
2019-04-22T07:34:43.854Z,101989.80
2019-04-22T07:36:01.395Z,101988.23
2019-04-22T07:36:53.532Z,101993.97
2019-04-22T07:38:09.405Z,102000.58
2019-04-22T07:38:48.549Z,101997.17
2019-04-22T07:39:50.078Z,101989.45
2019-04-22T07:40:56.202Z,101991.15
2019-04-22T07:41:58.170Z,101992.14
2019-04-22T07:43:09.928Z,101989.09
2019-04-22T07:44:24.265Z,101998.88
2019-04-22T07:45:13.141Z,101997.88
2019-04-22T07:46:13.719Z,101995.19
2019-04-22T07:49:26.897Z,102014.88
2019-04-22T07:50:44.547Z,102012.18
2019-04-22T07:51:32.960Z,102016.09
2019-04-22T07:52:33.416Z,102015.58
2019-04-22T07:53:40.448Z,102014.23
2019-04-22T07:54:46.764Z,102012.89
2019-04-22T07:55:49.019Z,102011.70
2019-04-22T07:56:50.729Z,102010.35
2019-04-22T07:57:51.810Z,102010.20
2019-04-22T07:58:58.826Z,102008.49
2019-04-22T08:00:04.086Z,102010.70
2019-04-22T08:01:09.055Z,102011.19
2019-04-22T08:02:11.512Z,102007.66
2019-04-22T08:03:14.604Z,102013.53
2019-04-22T08:05:18.833Z,102018.91
2019-04-22T08:07:27.116Z,102011.70
2019-04-22T08:09:35.869Z,102015.03
2019-04-22T08:12:47.374Z,102019.55
2019-04-22T08:13:58.967Z,102021.89
2019-04-22T08:14:45.612Z,102022.75
2019-04-22T08:15:55.335Z,102026.09
2019-04-22T08:17:01.457Z,102023.40
2019-04-22T08:19:04.093Z,102031.95
2019-04-22T08:20:09.192Z,102027.56
2019-04-22T08:21:12.399Z,102022.33
2019-04-22T08:22:18.752Z,102025.86
2019-04-22T08:23:23.774Z,102022.69
2019-04-22T08:24:26.651Z,102017.08
2019-04-22T08:25:26.542Z,102017.59
2019-04-22T08:26:32.195Z,102020.77
2019-04-22T08:27:39.562Z,102019.06
2019-04-22T08:29:53.545Z,102019.57
2019-04-22T08:30:48.933Z,102020.92
2019-04-22T08:32:01.113Z,102014.83
2019-04-22T08:32:55.896Z,102013.13
2019-04-22T08:34:00.322Z,102007.23
2019-04-22T08:34:56.455Z,102012.26
2019-04-22T08:36:15.140Z,102012.77
2019-04-22T08:37:35.443Z,102007.00
2019-04-22T08:38:17.644Z,102003.34
2019-04-22T08:39:15.472Z,102004.31
2019-04-22T08:40:23.591Z,102002.00
2019-04-22T08:41:27.244Z,102000.66
2019-04-22T08:42:35.175Z,102000.66
2019-04-22T08:43:42.114Z,101999.31
2019-04-22T08:44:53.410Z,101999.31
2019-04-22T08:45:39.000Z,101998.44
2019-04-22T08:46:40.396Z,101986.09
2019-04-22T08:47:41.873Z,101993.92
2019-04-22T08:48:51.508Z,101989.50
2019-04-22T08:49:57.010Z,101986.33
2019-04-22T08:50:52.621Z,101976.91
2019-04-22T08:51:58.920Z,101983.16
2019-04-22T08:53:02.088Z,101979.83
2019-04-22T08:54:05.677Z,101977.48
2019-04-22T08:55:11.413Z,101974.80
2019-04-22T08:56:23.475Z,101978.83
2019-04-22T08:57:18.423Z,101959.47
2019-04-22T08:58:34.285Z,101978.19
2019-04-22T08:59:15.035Z,101984.28
2019-04-22T09:00:34.429Z,101989.16
2019-04-22T09:01:30.078Z,101987.33
2019-04-22T09:03:41.813Z,101989.86
2019-04-22T09:04:39.147Z,101992.42
2019-04-22T09:07:52.566Z,101992.27
2019-04-22T09:09:55.322Z,101996.18
2019-04-22T09:11:11.622Z,101998.88
2019-04-22T09:12:07.642Z,101994.33
2019-04-22T09:13:21.715Z,101995.19
2019-04-22T09:14:16.553Z,101996.89
2019-04-22T09:15:18.295Z,101995.03
2019-04-22T09:16:23.372Z,101995.03
2019-04-22T09:17:21.357Z,101992.21
2019-04-22T09:18:32.917Z,101992.21
2019-04-22T09:19:28.434Z,101993.04
2019-04-22T09:20:32.565Z,102003.33
2019-04-22T09:21:38.892Z,102004.68
2019-04-22T09:22:53.917Z,102006.37
2019-04-22T09:23:45.666Z,102013.11
2019-04-22T09:24:46.954Z,102012.25
2019-04-22T09:25:50.635Z,102010.42
2019-04-22T09:26:54.456Z,102009.91
2019-04-22T09:27:55.635Z,102002.34
2019-04-22T09:29:04.999Z,102003.69
2019-04-22T09:30:09.893Z,102002.70
2019-04-22T09:31:06.489Z,101997.31
2019-04-22T09:32:14.702Z,101999.65
2019-04-22T09:33:20.833Z,101991.92
2019-04-22T09:34:13.801Z,101996.44
2019-04-22T09:35:24.804Z,101990.09
2019-04-22T09:36:29.768Z,101993.27
2019-04-22T09:39:34.580Z,101982.50
2019-04-22T09:40:43.214Z,101990.09
2019-04-22T09:41:49.460Z,101990.58
2019-04-22T09:43:53.641Z,101988.88
2019-04-22T09:45:06.146Z,101986.19
2019-04-22T09:45:52.795Z,101987.53
2019-04-22T09:47:00.325Z,101984.84
2019-04-22T09:50:09.850Z,101992.21
2019-04-22T09:51:14.356Z,101991.34
2019-04-22T09:52:14.863Z,101995.89
2019-04-22T09:53:22.483Z,101998.42
2019-04-22T09:54:30.994Z,101990.98
2019-04-22T09:55:26.819Z,101996.89
2019-04-22T09:56:32.062Z,101992.50
2019-04-22T09:57:35.417Z,101995.55
2019-04-22T09:58:39.390Z,101998.72
2019-04-22T09:59:48.612Z,101991.15
2019-04-22T10:00:57.379Z,101995.19
2019-04-22T10:02:11.384Z,101992.50
2019-04-22T10:04:03.692Z,101991.15
2019-04-22T10:05:07.557Z,101997.02
2019-04-22T10:06:18.556Z,101990.28
2019-04-22T10:07:10.058Z,101994.48
2019-04-22T10:08:22.258Z,101993.48
2019-04-22T10:09:33.075Z,101995.48
2019-04-22T10:10:35.270Z,101998.17
2019-04-22T10:11:30.239Z,101996.82
2019-04-22T10:12:34.904Z,101990.57
2019-04-22T10:13:34.529Z,101999.16
2019-04-22T10:14:33.727Z,101996.12
2019-04-22T10:15:45.477Z,101995.13
2019-04-22T10:17:44.478Z,101997.46
2019-04-22T10:18:49.005Z,101991.72
2019-04-22T10:19:47.998Z,102002.97
2019-04-22T10:20:54.070Z,101997.11
2019-04-22T10:23:04.073Z,101990.73
2019-04-22T10:24:03.346Z,101992.08
2019-04-22T10:25:14.090Z,101991.08
2019-04-22T10:26:14.392Z,101997.81
2019-04-22T10:27:14.300Z,101994.61
2019-04-22T10:28:27.329Z,101993.27
2019-04-22T10:29:27.050Z,101999.52
2019-04-22T10:30:33.831Z,101992.78
2019-04-22T10:32:29.120Z,101994.84
2019-04-22T10:33:30.913Z,101995.31
2019-04-22T10:34:27.033Z,101995.31
2019-04-22T10:35:23.100Z,101996.66
2019-04-22T10:36:23.690Z,102000.22
2019-04-22T10:37:25.650Z,101992.14
2019-04-22T10:38:28.508Z,101994.84
2019-04-22T10:39:39.664Z,101993.33
2019-04-22T10:40:36.406Z,101996.89
2019-04-22T10:41:38.961Z,101993.20
2019-04-22T10:42:41.241Z,101990.00
2019-04-22T10:43:43.325Z,101996.73
2019-04-22T10:44:46.469Z,101994.03
2019-04-22T10:45:48.276Z,101984.96
2019-04-22T10:46:49.846Z,101995.09
2019-04-22T10:47:52.239Z,101987.88
2019-04-22T10:48:54.659Z,101990.58
2019-04-22T10:49:56.411Z,101983.36
2019-04-22T10:50:58.892Z,101983.36
2019-04-22T10:52:00.449Z,101983.20
2019-04-22T10:53:01.929Z,101979.67
2019-04-22T10:54:05.135Z,101979.52
2019-04-22T10:55:09.765Z,101980.86
2019-04-22T10:56:12.623Z,101988.81
2019-04-22T10:57:14.232Z,101994.39
2019-04-22T10:58:17.051Z,101993.05
2019-04-22T10:59:18.669Z,101999.66
2019-04-22T11:00:21.656Z,101999.66
2019-04-22T11:01:23.352Z,101995.45
2019-04-22T11:02:25.642Z,101997.15
2019-04-22T11:03:28.296Z,101995.67
2019-04-22T11:04:30.240Z,101993.69
2019-04-22T11:05:32.374Z,101994.39
2019-04-22T11:06:40.053Z,101996.57
2019-04-22T11:07:44.252Z,101999.14
2019-04-22T11:08:50.431Z,102005.71
2019-04-22T11:09:51.744Z,102003.37
2019-04-22T11:11:05.845Z,102005.58
2019-04-22T11:12:01.947Z,102004.11
2019-04-22T11:12:56.869Z,102007.63
2019-04-22T11:13:58.251Z,102004.81
2019-04-22T11:15:00.121Z,102008.85
2019-04-22T11:16:01.674Z,102007.86
2019-04-22T11:17:05.658Z,102011.90
2019-04-22T11:18:11.440Z,102010.55
2019-04-22T11:19:13.918Z,102008.69
2019-04-22T11:20:17.687Z,102010.91
2019-04-22T11:21:19.921Z,102007.22
2019-04-22T11:22:26.534Z,102015.65
2019-04-22T11:23:25.000Z,102015.14
2019-04-22T11:24:26.786Z,102010.97
2019-04-22T11:25:29.832Z,102003.23
2019-04-22T11:26:31.771Z,102006.77
2019-04-22T11:27:34.957Z,102007.62
2019-04-22T11:28:38.056Z,102007.62
2019-04-22T11:29:41.567Z,102010.33
2019-04-22T11:30:43.076Z,102004.42
2019-04-22T11:31:44.584Z,102008.46
2019-04-22T11:32:46.529Z,102004.06
2019-04-22T11:33:48.454Z,102005.06
2019-04-22T11:34:51.126Z,102001.89
2019-04-22T11:35:52.646Z,102013.14
2019-04-22T11:36:56.739Z,102007.27
2019-04-22T11:37:59.143Z,102013.14
2019-04-22T11:39:04.123Z,102009.45
2019-04-22T11:40:16.587Z,102004.71
2019-04-22T11:41:09.713Z,102011.32
2019-04-22T11:42:12.121Z,102009.97
2019-04-22T11:43:14.587Z,102010.97
2019-04-22T11:44:17.177Z,102015.01
2019-04-22T11:45:19.412Z,102014.02
2019-04-22T11:46:21.119Z,102009.62
2019-04-22T11:47:23.405Z,102015.01
2019-04-22T11:48:24.864Z,102008.63
2019-04-22T11:49:27.796Z,102008.75
2019-04-22T11:50:30.200Z,102013.66
2019-04-22T11:51:32.001Z,102008.27
2019-04-22T11:52:33.422Z,102012.15
2019-04-22T11:53:34.808Z,102007.75
2019-04-22T11:54:36.977Z,102011.32
2019-04-22T11:55:38.496Z,102008.46
2019-04-22T11:56:40.987Z,102009.81
2019-04-22T11:57:43.081Z,102014.72
2019-04-22T11:58:46.983Z,102009.68
2019-04-22T11:59:49.044Z,102010.86
2019-04-22T12:00:51.975Z,102009.16
2019-04-22T12:01:55.093Z,102005.98
2019-04-22T12:02:56.806Z,102010.73
2019-04-22T12:03:58.310Z,102006.34
2019-04-22T12:05:01.896Z,102009.03
2019-04-22T12:06:04.057Z,102009.73
2019-04-22T12:07:05.882Z,102010.45
2019-04-22T12:08:07.373Z,102012.78
2019-04-22T12:09:12.273Z,102012.27
2019-04-22T12:10:22.860Z,102009.09
2019-04-22T12:11:18.793Z,102014.71
2019-04-22T12:12:21.595Z,102014.19
2019-04-22T12:13:24.082Z,102015.89
2019-04-22T12:14:25.780Z,102013.20
2019-04-22T12:15:28.813Z,102015.54
2019-04-22T12:16:31.666Z,102011.37
2019-04-22T12:17:33.884Z,102014.90
2019-04-22T12:18:35.459Z,102015.28
2019-04-22T12:19:37.934Z,102012.94
2019-04-22T12:20:39.361Z,102010.24
2019-04-22T12:21:41.312Z,102009.12
2019-04-22T12:22:43.001Z,102007.61
2019-04-22T12:23:45.204Z,102010.81
2019-04-22T12:24:48.172Z,102008.95
2019-04-22T12:25:57.118Z,102002.92
2019-04-22T12:26:53.349Z,102005.61
2019-04-22T12:27:55.180Z,102005.97
2019-04-22T12:28:57.292Z,102007.83
2019-04-22T12:29:58.844Z,102006.83
2019-04-22T12:31:01.649Z,102007.66
2019-04-22T12:32:05.193Z,102006.67
2019-04-22T12:33:10.269Z,102001.28
2019-04-22T12:34:11.209Z,101997.23
2019-04-22T12:35:13.722Z,101997.58
2019-04-22T12:36:15.161Z,101998.93
2019-04-22T12:37:26.041Z,102001.62
2019-04-22T12:38:20.738Z,102000.28
2019-04-22T12:39:23.353Z,101998.45
2019-04-22T12:40:33.777Z,102000.63
2019-04-22T12:41:28.277Z,102005.54
2019-04-22T12:42:31.198Z,102000.63
2019-04-22T12:43:33.619Z,102007.37
2019-04-22T12:44:38.485Z,102006.37
2019-04-22T12:45:38.606Z,102004.67
2019-04-22T12:46:39.981Z,102008.72
2019-04-22T12:47:42.152Z,102003.67
2019-04-22T12:48:45.403Z,102011.28
2019-04-22T12:49:56.164Z,102005.89
2019-04-22T12:50:54.249Z,102003.20
2019-04-22T12:51:55.151Z,102000.98
2019-04-22T12:53:02.468Z,101999.16
2019-04-22T12:54:01.129Z,102000.98
2019-04-22T12:55:05.946Z,101999.98
2019-04-22T12:56:09.103Z,101999.63
2019-04-22T12:57:10.656Z,101996.94
2019-04-22T12:58:12.035Z,101992.89
2019-04-22T12:59:13.922Z,101996.94
2019-04-22T13:00:17.538Z,102000.63
2019-04-22T13:01:22.323Z,101995.23
2019-04-22T13:02:25.094Z,101993.76
2019-04-22T13:03:26.609Z,101990.55
2019-04-22T13:04:28.087Z,101987.02
2019-04-22T13:05:29.483Z,101991.55
2019-04-22T13:06:32.075Z,101991.06
2019-04-22T13:07:33.769Z,101990.55
2019-04-22T13:08:35.829Z,101994.59
2019-04-22T13:09:37.314Z,101994.11
2019-04-22T13:10:46.871Z,101991.77
2019-04-22T13:11:42.767Z,101994.94
2019-04-22T13:12:46.865Z,101989.55
2019-04-22T13:13:49.329Z,101982.81
2019-04-22T13:14:50.884Z,101988.07
2019-04-22T13:15:53.124Z,101985.03
2019-04-22T13:16:55.105Z,101993.95
2019-04-22T13:18:07.194Z,101992.25
2019-04-22T13:19:05.084Z,101985.03
2019-04-22T13:20:06.140Z,101984.16
2019-04-22T13:21:08.778Z,101987.20
2019-04-22T13:22:10.335Z,101988.91
2019-04-22T13:23:11.750Z,101984.86
2019-04-22T13:24:13.485Z,101990.77
2019-04-22T13:25:15.644Z,101984.38
2019-04-22T13:26:18.868Z,101986.72
2019-04-22T13:27:21.212Z,101982.16
2019-04-22T13:28:23.073Z,101986.59
2019-04-22T13:29:25.407Z,101985.24
2019-04-22T13:30:28.405Z,101984.03
2019-04-22T13:31:30.891Z,101978.86
2019-04-22T13:32:34.864Z,101983.38
2019-04-22T13:33:36.990Z,101980.20
2019-04-22T13:34:45.545Z,101983.59
2019-04-22T13:35:43.810Z,101984.59
2019-04-22T13:36:46.675Z,101981.39
2019-04-22T13:37:48.833Z,101978.34
2019-04-22T13:38:51.372Z,101978.34
2019-04-22T13:39:52.999Z,101982.73
2019-04-22T13:41:07.167Z,101980.55
2019-04-22T13:42:02.471Z,101981.91
2019-04-22T13:43:01.033Z,101985.43
2019-04-22T13:44:02.746Z,101984.08